Time;durP1;ratioP1;P1;durP2;ratioP2;P2;SDS_P1;SDS_P2;PMS_P1;PMS_P2;Temp;Humidity;BMP_temperature;BMP_pressure;BME280_temperature;BME280_humidity;BME280_pressure;Samples;Min_cycle;Max_cycle;Signal;HPM_P1;HPM_P2
2023/08/11 00:01:52;;;;;;;;;;;17.60;99.90;;;;;;5116746;28;19956;-64
2023/08/11 00:04:19;;;;;;;;;;;17.50;99.90;;;;;;5116058;28;19923;-63
2023/08/11 00:06:45;;;;;;;;;;;17.40;99.90;;;;;;5116710;28;19947;-63
2023/08/11 00:09:13;;;;;;;;;;;17.30;99.90;;;;;;5098481;28;19931;-64
2023/08/11 00:11:42;;;;;;;;;;;17.20;99.90;;;;;;5097433;28;19931;-63
2023/08/11 00:14:08;;;;;;;;;;;17.10;99.90;;;;;;5116427;28;20333;-64
2023/08/11 00:16:35;;;;;;;;;;;17.00;99.90;;;;;;5098349;28;20351;-63
2023/08/11 00:19:02;;;;;;;;;;;16.90;99.90;;;;;;5097404;28;20061;-64
2023/08/11 00:21:28;;;;;;;;;;;16.80;99.90;;;;;;5098046;28;19923;-64
2023/08/11 00:23:55;;;;;;;;;;;16.70;99.90;;;;;;5116347;28;20348;-63
2023/08/11 00:26:22;;;;;;;;;;;16.70;99.90;;;;;;5097370;28;19924;-64
2023/08/11 00:28:50;;;;;;;;;;;16.60;99.90;;;;;;5115978;28;19923;-64
2023/08/11 00:31:17;;;;;;;;;;;16.50;99.90;;;;;;5116251;28;19953;-64
2023/08/11 00:33:46;;;;;;;;;;;16.50;99.90;;;;;;5096969;28;19961;-63
2023/08/11 00:36:13;;;;;;;;;;;16.40;99.90;;;;;;5116103;28;19931;-63
2023/08/11 00:38:40;;;;;;;;;;;16.40;99.90;;;;;;5096894;28;20399;-63
2023/08/11 00:41:07;;;;;;;;;;;16.30;99.90;;;;;;5097923;28;20295;-63
2023/08/11 00:43:34;;;;;;;;;;;16.20;99.90;;;;;;5115872;28;20299;-63
2023/08/11 00:46:06;;;;;;;;;;;16.10;99.90;;;;;;5096753;28;19924;-64
2023/08/11 00:48:33;;;;;;;;;;;16.10;99.90;;;;;;5113668;28;19930;-63
2023/08/11 00:50:59;;;;;;;;;;;16.00;99.90;;;;;;5097619;28;20337;-63
2023/08/11 00:53:26;;;;;;;;;;;16.00;99.90;;;;;;5094639;28;19927;-63
2023/08/11 00:55:53;;;;;;;;;;;16.00;99.90;;;;;;5097580;28;19924;-63
2023/08/11 00:58:20;;;;;;;;;;;16.00;99.90;;;;;;5097238;28;19927;-63
2023/08/11 01:00:50;;;;;;;;;;;15.90;99.90;;;;;;5096833;28;20547;-62
2023/08/11 01:03:18;;;;;;;;;;;15.90;99.90;;;;;;5113680;28;19963;-63
2023/08/11 01:05:52;;;;;;;;;;;15.80;99.90;;;;;;5096905;28;20018;-63
2023/08/11 01:08:22;;;;;;;;;;;15.80;99.90;;;;;;5114978;28;19932;-63
2023/08/11 01:10:52;;;;;;;;;;;15.80;99.90;;;;;;5115393;28;19931;-63
2023/08/11 01:13:20;;;;;;;;;;;15.70;99.90;;;;;;5115095;28;19927;-63
2023/08/11 01:15:49;;;;;;;;;;;15.70;99.90;;;;;;5096243;28;19931;-63
2023/08/11 01:18:18;;;;;;;;;;;15.60;99.90;;;;;;5097277;28;19934;-64
2023/08/11 01:20:45;;;;;;;;;;;15.60;99.90;;;;;;5112643;28;19951;-64
2023/08/11 01:23:17;;;;;;;;;;;15.60;99.90;;;;;;5115282;28;19931;-64
2023/08/11 01:25:44;;;;;;;;;;;15.60;99.90;;;;;;5095776;28;19923;-64
2023/08/11 01:28:11;;;;;;;;;;;15.60;99.90;;;;;;5096505;28;20341;-63
2023/08/11 01:30:37;;;;;;;;;;;15.50;99.90;;;;;;5096678;28;20402;-63
2023/08/11 01:33:04;;;;;;;;;;;15.50;99.90;;;;;;5114996;28;19943;-63
2023/08/11 01:35:31;;;;;;;;;;;15.40;99.90;;;;;;5114203;28;19924;-63
2023/08/11 01:37:58;;;;;;;;;;;15.40;99.90;;;;;;5096652;28;19930;-63
2023/08/11 01:40:26;;;;;;;;;;;15.40;99.90;;;;;;5096614;28;20010;-62
2023/08/11 01:42:55;;;;;;;;;;;15.40;99.90;;;;;;5112176;28;19935;-62
2023/08/11 01:45:22;;;;;;;;;;;15.30;99.90;;;;;;5096186;28;20830;-63
2023/08/11 01:47:49;;;;;;;;;;;15.40;99.90;;;;;;5096703;28;19924;-64
2023/08/11 01:50:16;;;;;;;;;;;15.40;99.90;;;;;;5113932;28;19927;-63
2023/08/11 01:52:45;;;;;;;;;;;15.30;99.90;;;;;;5096401;28;19975;-63
2023/08/11 01:55:13;;;;;;;;;;;15.30;99.90;;;;;;5114628;28;19931;-63
2023/08/11 01:57:41;;;;;;;;;;;15.30;99.90;;;;;;5114180;28;19924;-63
2023/08/11 02:00:12;;;;;;;;;;;15.20;99.90;;;;;;5093249;28;19927;-63
2023/08/11 02:02:39;;;;;;;;;;;15.20;99.90;;;;;;5096055;28;19977;-64
2023/08/11 02:05:07;;;;;;;;;;;15.20;99.90;;;;;;5095358;28;19930;-63
2023/08/11 02:07:34;;;;;;;;;;;15.20;99.90;;;;;;5096317;28;19939;-63
2023/08/11 02:10:01;;;;;;;;;;;15.20;99.90;;;;;;5095486;28;20333;-63
2023/08/11 02:12:28;;;;;;;;;;;15.20;99.90;;;;;;5096156;28;19931;-63
2023/08/11 02:14:56;;;;;;;;;;;15.10;99.90;;;;;;5113977;28;19931;-62
2023/08/11 02:17:23;;;;;;;;;;;15.10;99.90;;;;;;5113576;28;19971;-63
2023/08/11 02:19:49;;;;;;;;;;;15.10;99.90;;;;;;5113251;28;19931;-63
2023/08/11 02:22:16;;;;;;;;;;;15.10;99.90;;;;;;5096117;28;19984;-63
2023/08/11 02:24:43;;;;;;;;;;;15.10;99.90;;;;;;5113204;28;19976;-63
2023/08/11 02:27:10;;;;;;;;;;;15.10;99.90;;;;;;5113951;28;19976;-63
2023/08/11 02:29:36;;;;;;;;;;;15.00;99.90;;;;;;5113782;28;19971;-63
2023/08/11 02:32:05;;;;;;;;;;;15.00;99.90;;;;;;5113652;28;19985;-63
2023/08/11 02:34:32;;;;;;;;;;;15.00;99.90;;;;;;5113748;28;19924;-63
2023/08/11 02:36:59;;;;;;;;;;;15.00;99.90;;;;;;5095757;28;19924;-65
2023/08/11 02:39:25;;;;;;;;;;;15.00;99.90;;;;;;5094913;28;20264;-63
2023/08/11 02:41:52;;;;;;;;;;;15.00;99.90;;;;;;5113867;28;19946;-64
2023/08/11 02:44:19;;;;;;;;;;;15.00;99.90;;;;;;5095323;28;19923;-63
2023/08/11 02:46:46;;;;;;;;;;;14.90;99.90;;;;;;5094616;28;20428;-64
2023/08/11 02:49:14;;;;;;;;;;;14.90;99.90;;;;;;5113370;28;20383;-63
2023/08/11 02:51:41;;;;;;;;;;;14.90;99.90;;;;;;5113656;28;19923;-64
2023/08/11 02:54:08;;;;;;;;;;;15.00;99.90;;;;;;5094525;28;19976;-63
2023/08/11 02:56:36;;;;;;;;;;;14.90;99.90;;;;;;5113623;28;20011;-63
2023/08/11 02:59:03;;;;;;;;;;;15.00;99.90;;;;;;5113119;28;19931;-63
2023/08/11 03:01:32;;;;;;;;;;;14.90;99.90;;;;;;5112669;28;19928;-63
2023/08/11 03:03:59;;;;;;;;;;;14.90;99.90;;;;;;5094870;28;19924;-63
2023/08/11 03:06:28;;;;;;;;;;;14.90;99.90;;;;;;5094550;28;20294;-62
2023/08/11 03:08:54;;;;;;;;;;;14.90;99.90;;;;;;5094858;28;20014;-62
2023/08/11 03:11:21;;;;;;;;;;;14.90;99.90;;;;;;5094000;28;19976;-63
2023/08/11 03:13:48;;;;;;;;;;;14.90;99.90;;;;;;5091907;28;19967;-63
2023/08/11 03:16:15;;;;;;;;;;;14.90;99.90;;;;;;5095021;28;20264;-63
2023/08/11 03:18:41;;;;;;;;;;;14.90;99.90;;;;;;5095346;28;19973;-63
2023/08/11 03:21:08;;;;;;;;;;;14.80;99.90;;;;;;5112509;28;19923;-63
2023/08/11 03:23:36;;;;;;;;;;;14.90;99.90;;;;;;5112917;28;19932;-62
2023/08/11 03:26:03;;;;;;;;;;;14.80;99.90;;;;;;5094635;28;19932;-62
2023/08/11 03:28:30;;;;;;;;;;;14.80;99.90;;;;;;5112670;28;19973;-63
2023/08/11 03:30:58;;;;;;;;;;;14.80;99.90;;;;;;5094535;28;19961;-63
2023/08/11 03:33:25;;;;;;;;;;;14.80;99.90;;;;;;5113038;28;19935;-63
2023/08/11 03:35:51;;;;;;;;;;;14.80;99.90;;;;;;5094220;28;20287;-64
2023/08/11 03:38:18;;;;;;;;;;;14.70;99.90;;;;;;5095003;28;19973;-64
2023/08/11 03:40:46;;;;;;;;;;;14.70;99.90;;;;;;5094796;28;19928;-64
2023/08/11 03:43:13;;;;;;;;;;;14.70;99.90;;;;;;5093834;28;20012;-64
2023/08/11 03:45:40;;;;;;;;;;;14.70;99.90;;;;;;5094565;28;19969;-64
2023/08/11 03:48:06;;;;;;;;;;;14.60;99.90;;;;;;5112738;28;19924;-64
2023/08/11 03:50:33;;;;;;;;;;;14.60;99.90;;;;;;5100402;28;19923;-64
2023/08/11 03:53:00;;;;;;;;;;;14.70;99.90;;;;;;5087695;28;19930;-63
2023/08/11 03:55:28;;;;;;;;;;;14.80;99.90;;;;;;5092142;28;19928;-64
2023/08/11 03:57:56;;;;;;;;;;;14.90;99.90;;;;;;5110723;28;19934;-64
2023/08/11 04:00:23;;;;;;;;;;;15.00;99.90;;;;;;5093330;28;20018;-65
2023/08/11 04:02:50;;;;;;;;;;;15.10;99.90;;;;;;5109435;28;19924;-64
2023/08/11 04:05:17;;;;;;;;;;;15.10;99.90;;;;;;5110694;28;19947;-64
2023/08/11 04:07:44;;;;;;;;;;;15.20;99.90;;;;;;5108091;28;19970;-64
2023/08/11 04:10:11;;;;;;;;;;;15.20;99.90;;;;;;5092970;28;19977;-63
2023/08/11 04:12:38;;;;;;;;;;;15.20;99.90;;;;;;5108649;28;20265;-65
2023/08/11 04:15:07;;;;;;;;;;;15.20;99.90;;;;;;5111347;28;19946;-64
2023/08/11 04:17:34;;;;;;;;;;;15.10;99.90;;;;;;5090696;28;19924;-64
2023/08/11 04:20:01;;;;;;;;;;;15.20;99.90;;;;;;5111495;28;19927;-63
2023/08/11 04:22:28;;;;;;;;;;;15.20;99.90;;;;;;5090931;28;20387;-64
2023/08/11 04:24:55;;;;;;;;;;;15.10;99.90;;;;;;5113288;28;19965;-64
2023/08/11 04:27:22;;;;;;;;;;;15.10;99.90;;;;;;5113846;28;19927;-64
2023/08/11 04:29:48;;;;;;;;;;;15.00;99.90;;;;;;5114875;28;20382;-64
2023/08/11 04:32:16;;;;;;;;;;;15.00;99.90;;;;;;5113273;28;19931;-65
2023/08/11 04:34:43;;;;;;;;;;;15.00;99.90;;;;;;5096221;28;19973;-65
2023/08/11 04:37:10;;;;;;;;;;;15.20;99.90;;;;;;5114053;28;20420;-65
2023/08/11 04:39:37;;;;;;;;;;;15.10;99.90;;;;;;5112221;28;19924;-64
2023/08/11 04:42:04;;;;;;;;;;;15.10;99.90;;;;;;5114213;28;20079;-63
2023/08/11 04:44:31;;;;;;;;;;;15.20;99.90;;;;;;5094696;28;19939;-64
2023/08/11 04:46:58;;;;;;;;;;;15.20;99.90;;;;;;5113945;28;20322;-64
2023/08/11 04:49:26;;;;;;;;;;;15.20;99.90;;;;;;5094303;28;19924;-64
2023/08/11 04:51:52;;;;;;;;;;;15.20;99.90;;;;;;5095810;28;20356;-65
2023/08/11 04:54:19;;;;;;;;;;;15.30;99.90;;;;;;5094752;28;19969;-64
2023/08/11 04:56:46;;;;;;;;;;;15.30;99.90;;;;;;5096396;28;20328;-65
2023/08/11 04:59:13;;;;;;;;;;;15.30;99.90;;;;;;5091152;28;19946;-65
2023/08/11 05:01:39;;;;;;;;;;;15.30;99.90;;;;;;5113334;28;19928;-65
2023/08/11 05:04:06;;;;;;;;;;;15.30;99.90;;;;;;5112171;28;19931;-64
2023/08/11 05:06:34;;;;;;;;;;;15.40;99.90;;;;;;5114118;28;19924;-63
2023/08/11 05:09:01;;;;;;;;;;;15.40;99.90;;;;;;5091691;28;19931;-64
2023/08/11 05:11:28;;;;;;;;;;;15.50;99.90;;;;;;5094127;28;19938;-65
2023/08/11 05:13:55;;;;;;;;;;;15.60;99.90;;;;;;5092688;28;19939;-65
2023/08/11 05:16:22;;;;;;;;;;;15.60;99.90;;;;;;5112490;28;19924;-64
2023/08/11 05:18:49;;;;;;;;;;;15.60;99.90;;;;;;5111948;28;20436;-64
2023/08/11 05:21:17;;;;;;;;;;;15.70;99.90;;;;;;5093614;28;20026;-64
2023/08/11 05:23:45;;;;;;;;;;;15.70;99.90;;;;;;5093085;28;19932;-63
2023/08/11 05:26:12;;;;;;;;;;;15.80;99.90;;;;;;5112006;28;19923;-64
2023/08/11 05:28:38;;;;;;;;;;;15.90;99.90;;;;;;5110661;28;19928;-63
2023/08/11 05:31:05;;;;;;;;;;;16.00;99.90;;;;;;5107997;28;19924;-64
2023/08/11 05:33:33;;;;;;;;;;;16.10;99.90;;;;;;5095061;28;19923;-64
2023/08/11 05:36:00;;;;;;;;;;;16.20;99.90;;;;;;5110445;28;19923;-65
2023/08/11 05:38:27;;;;;;;;;;;16.20;99.90;;;;;;5114107;28;20105;-64
2023/08/11 05:40:55;;;;;;;;;;;16.30;99.90;;;;;;5094393;28;19923;-64
2023/08/11 05:43:21;;;;;;;;;;;16.40;99.90;;;;;;5113820;28;19931;-64
2023/08/11 05:45:48;;;;;;;;;;;16.50;99.90;;;;;;5094438;28;19924;-64
2023/08/11 05:48:15;;;;;;;;;;;16.60;99.90;;;;;;5112699;28;19931;-63
2023/08/11 05:50:44;;;;;;;;;;;16.80;99.90;;;;;;5094383;28;19923;-64
2023/08/11 05:53:10;;;;;;;;;;;16.90;99.90;;;;;;5094444;28;19994;-63
2023/08/11 05:55:37;;;;;;;;;;;17.00;99.90;;;;;;5111084;28;19971;-63
2023/08/11 05:58:05;;;;;;;;;;;17.20;99.90;;;;;;5111780;28;20040;-65
2023/08/11 06:00:32;;;;;;;;;;;17.40;99.90;;;;;;5109997;28;19923;-65
2023/08/11 06:02:59;;;;;;;;;;;17.50;99.90;;;;;;5091849;28;19928;-64
2023/08/11 06:05:26;;;;;;;;;;;17.80;99.90;;;;;;5093472;28;20291;-63
2023/08/11 06:07:53;;;;;;;;;;;18.00;99.90;;;;;;5111424;28;20385;-64
2023/08/11 06:10:19;;;;;;;;;;;18.10;99.90;;;;;;5092560;28;19924;-64
2023/08/11 06:12:46;;;;;;;;;;;18.30;99.90;;;;;;5092951;28;20006;-64
2023/08/11 06:15:14;;;;;;;;;;;18.40;99.90;;;;;;5093066;28;19923;-63
2023/08/11 06:17:42;;;;;;;;;;;18.50;99.90;;;;;;5093001;28;19947;-65
2023/08/11 06:20:10;;;;;;;;;;;18.70;99.90;;;;;;5124317;27;19923;-65
2023/08/11 06:22:37;;;;;;;;;;;18.90;99.90;;;;;;5110751;28;20014;-64
2023/08/11 06:25:05;;;;;;;;;;;19.20;99.90;;;;;;5093776;28;19923;-63
2023/08/11 06:27:32;;;;;;;;;;;19.40;99.90;;;;;;5093892;28;20733;-64
2023/08/11 06:29:59;;;;;;;;;;;19.50;99.90;;;;;;5112626;28;19942;-64
2023/08/11 06:32:27;;;;;;;;;;;19.70;99.90;;;;;;5110412;28;19931;-64
2023/08/11 06:34:54;;;;;;;;;;;19.90;99.90;;;;;;5093531;28;19969;-63
2023/08/11 06:37:21;;;;;;;;;;;20.20;99.90;;;;;;5093591;28;20375;-64
2023/08/11 06:39:48;;;;;;;;;;;20.60;99.90;;;;;;5110413;28;19927;-63
2023/08/11 06:42:14;;;;;;;;;;;21.00;99.90;;;;;;5110297;28;19963;-64
2023/08/11 06:44:41;;;;;;;;;;;21.30;99.90;;;;;;5091314;28;20668;-64
2023/08/11 06:47:08;;;;;;;;;;;21.80;99.90;;;;;;5110970;28;19927;-64
2023/08/11 06:49:36;;;;;;;;;;;22.20;99.90;;;;;;5112469;28;20344;-65
2023/08/11 06:52:03;;;;;;;;;;;22.50;99.90;;;;;;5110403;28;19924;-64
2023/08/11 06:54:29;;;;;;;;;;;23.10;99.90;;;;;;5093632;28;20402;-63
2023/08/11 06:56:56;;;;;;;;;;;23.50;99.90;;;;;;5111583;28;19939;-64
2023/08/11 06:59:23;;;;;;;;;;;24.00;99.90;;;;;;5091691;28;19923;-64
2023/08/11 07:01:49;;;;;;;;;;;24.20;99.90;;;;;;5110321;28;19976;-64
2023/08/11 07:04:16;;;;;;;;;;;24.60;99.90;;;;;;5110892;28;20390;-64
2023/08/11 07:06:44;;;;;;;;;;;24.70;99.90;;;;;;5111044;28;19927;-64
2023/08/11 07:09:11;;;;;;;;;;;24.70;99.90;;;;;;5091959;28;19935;-65
2023/08/11 07:11:38;;;;;;;;;;;25.00;99.90;;;;;;5094355;28;20008;-65
2023/08/11 07:14:05;;;;;;;;;;;25.20;99.90;;;;;;5091709;28;19981;-64
2023/08/11 07:16:32;;;;;;;;;;;25.30;99.90;;;;;;5110632;28;19931;-64
2023/08/11 07:18:59;;;;;;;;;;;25.60;99.90;;;;;;5110411;28;19931;-65
2023/08/11 07:21:25;;;;;;;;;;;26.00;99.90;;;;;;5108989;28;19924;-64
2023/08/11 07:23:54;;;;;;;;;;;26.20;99.90;;;;;;5111802;28;19973;-63
2023/08/11 07:26:21;;;;;;;;;;;26.50;99.90;;;;;;5092619;28;19924;-64
2023/08/11 07:28:47;;;;;;;;;;;26.60;99.80;;;;;;5112281;28;19935;-64
2023/08/11 07:31:14;;;;;;;;;;;26.90;99.80;;;;;;5113026;28;20360;-64
2023/08/11 07:33:42;;;;;;;;;;;27.20;99.30;;;;;;5093460;28;19939;-66
2023/08/11 07:36:09;;;;;;;;;;;27.10;98.30;;;;;;5094504;28;19976;-66
2023/08/11 07:38:36;;;;;;;;;;;27.10;98.70;;;;;;5112877;28;19923;-64
2023/08/11 07:41:04;;;;;;;;;;;27.20;98.80;;;;;;5093426;28;19977;-64
2023/08/11 07:43:31;;;;;;;;;;;27.30;97.40;;;;;;5094502;28;19924;-64
2023/08/11 07:45:57;;;;;;;;;;;27.60;97.90;;;;;;5111801;28;19931;-65
2023/08/11 07:48:24;;;;;;;;;;;27.90;97.70;;;;;;5094334;28;20391;-64
2023/08/11 07:50:51;;;;;;;;;;;28.00;97.60;;;;;;5114415;28;19924;-64
2023/08/11 07:53:18;;;;;;;;;;;28.30;97.10;;;;;;5111691;28;19950;-64
2023/08/11 07:55:45;;;;;;;;;;;28.70;95.90;;;;;;5113433;28;19924;-65
2023/08/11 07:58:13;;;;;;;;;;;28.80;94.80;;;;;;5114029;28;20045;-65
2023/08/11 08:00:40;;;;;;;;;;;28.90;94.20;;;;;;5098491;28;19924;-65
2023/08/11 08:03:06;;;;;;;;;;;29.00;95.30;;;;;;5113666;28;19930;-64
2023/08/11 08:05:33;;;;;;;;;;;29.00;93.90;;;;;;5115967;28;20390;-64
2023/08/11 08:08:00;;;;;;;;;;;29.30;94.30;;;;;;5116548;28;19930;-63
2023/08/11 08:10:27;;;;;;;;;;;29.20;93.50;;;;;;5115776;28;19924;-64
2023/08/11 08:12:54;;;;;;;;;;;29.20;93.60;;;;;;5098208;28;19930;-65
2023/08/11 08:15:24;;;;;;;;;;;29.20;93.10;;;;;;5116105;28;19931;-65
2023/08/11 08:17:51;;;;;;;;;;;29.10;93.50;;;;;;5097669;28;19924;-65
2023/08/11 08:20:17;;;;;;;;;;;29.30;94.20;;;;;;5115662;28;20330;-64
2023/08/11 08:22:45;;;;;;;;;;;29.40;92.70;;;;;;5116242;28;19931;-65
2023/08/11 08:25:12;;;;;;;;;;;29.50;92.60;;;;;;5115306;28;19924;-65
2023/08/11 08:27:40;;;;;;;;;;;29.60;92.30;;;;;;5116216;28;19953;-66
2023/08/11 08:30:07;;;;;;;;;;;29.80;93.40;;;;;;5097350;28;19924;-65
2023/08/11 08:32:37;;;;;;;;;;;29.80;92.40;;;;;;5115645;28;19981;-64
2023/08/11 08:35:04;;;;;;;;;;;29.70;91.80;;;;;;5115855;28;20004;-65
2023/08/11 08:37:32;;;;;;;;;;;29.90;91.90;;;;;;5097171;28;20444;-64
2023/08/11 08:40:00;;;;;;;;;;;30.10;92.00;;;;;;5097359;28;19932;-65
2023/08/11 08:42:27;;;;;;;;;;;30.50;92.10;;;;;;5095688;28;19946;-65
2023/08/11 08:44:54;;;;;;;;;;;30.30;91.20;;;;;;5114877;28;19927;-65
2023/08/11 08:47:22;;;;;;;;;;;30.50;91.10;;;;;;5115295;28;20003;-65
2023/08/11 08:49:50;;;;;;;;;;;30.60;91.60;;;;;;5097171;28;19973;-65
2023/08/11 08:52:18;;;;;;;;;;;30.50;90.80;;;;;;5114930;28;20368;-65
2023/08/11 08:54:45;;;;;;;;;;;30.60;90.90;;;;;;5095084;28;19973;-64
2023/08/11 08:57:12;;;;;;;;;;;30.70;91.20;;;;;;5097075;28;19931;-65
2023/08/11 08:59:39;;;;;;;;;;;30.70;90.40;;;;;;5094449;28;19928;-64
2023/08/11 09:02:06;;;;;;;;;;;30.90;90.10;;;;;;5097373;28;19923;-64
2023/08/11 09:04:33;;;;;;;;;;;31.10;90.00;;;;;;5115408;28;19924;-64
2023/08/11 09:07:01;;;;;;;;;;;31.20;89.40;;;;;;5114990;28;19927;-64
2023/08/11 09:09:28;;;;;;;;;;;31.50;88.80;;;;;;5111885;28;19931;-65
2023/08/11 09:11:55;;;;;;;;;;;31.70;88.60;;;;;;5115156;28;19924;-64
2023/08/11 09:14:22;;;;;;;;;;;31.80;89.00;;;;;;5112418;28;20272;-64
2023/08/11 09:16:50;;;;;;;;;;;31.80;88.60;;;;;;5096495;28;20403;-64
2023/08/11 09:19:16;;;;;;;;;;;31.80;89.00;;;;;;5114446;28;19973;-64
2023/08/11 09:21:44;;;;;;;;;;;32.00;87.90;;;;;;5114884;28;19946;-64
2023/08/11 09:24:12;;;;;;;;;;;32.00;87.50;;;;;;5094630;28;19977;-65
2023/08/11 09:26:41;;;;;;;;;;;32.30;87.10;;;;;;5114201;28;19973;-65
2023/08/11 09:29:08;;;;;;;;;;;32.20;86.30;;;;;;5114479;28;19923;-64
2023/08/11 09:31:35;;;;;;;;;;;31.80;86.50;;;;;;5114796;28;19938;-64
2023/08/11 09:34:11;;;;;;;;;;;32.00;87.70;;;;;;5095830;28;19923;-64
2023/08/11 09:36:37;;;;;;;;;;;31.80;86.90;;;;;;5094504;28;20383;-65
2023/08/11 09:39:06;;;;;;;;;;;31.80;87.10;;;;;;5114803;28;19927;-63
2023/08/11 09:41:39;;;;;;;;;;;32.10;86.90;;;;;;5095845;28;19999;-64
2023/08/11 09:44:06;;;;;;;;;;;32.00;85.90;;;;;;5114498;28;20280;-64
2023/08/11 09:46:36;;;;;;;;;;;32.20;86.20;;;;;;5096040;28;19931;-65
2023/08/11 09:49:02;;;;;;;;;;;32.20;86.40;;;;;;5095373;28;19924;-65
2023/08/11 09:51:30;;;;;;;;;;;32.20;85.80;;;;;;5094040;28;19923;-65
2023/08/11 09:54:02;;;;;;;;;;;32.20;84.70;;;;;;5095996;28;19924;-65
2023/08/11 09:56:29;;;;;;;;;;;32.30;85.30;;;;;;5095326;28;19977;-64
2023/08/11 09:59:00;;;;;;;;;;;32.20;84.20;;;;;;5093961;28;19923;-64
2023/08/11 10:01:28;;;;;;;;;;;32.10;85.30;;;;;;5113615;27;19932;-64
2023/08/11 10:03:56;;;;;;;;;;;32.20;85.20;;;;;;5114208;28;19970;-64
2023/08/11 10:06:27;;;;;;;;;;;32.40;85.50;;;;;;5095898;28;19972;-64
2023/08/11 10:08:54;;;;;;;;;;;32.70;84.80;;;;;;5095557;28;20015;-65
2023/08/11 10:11:22;;;;;;;;;;;32.60;84.30;;;;;;5103614;27;19924;-64
2023/08/11 10:13:49;;;;;;;;;;;32.50;84.50;;;;;;5108214;28;19934;-65
2023/08/11 10:16:18;;;;;;;;;;;32.30;85.30;;;;;;5110164;28;20387;-64
2023/08/11 10:18:44;;;;;;;;;;;32.00;85.30;;;;;;5112045;28;19924;-64
2023/08/11 10:21:12;;;;;;;;;;;31.80;86.10;;;;;;5093268;28;19923;-65
2023/08/11 10:23:39;;;;;;;;;;;31.40;86.50;;;;;;5093797;28;20913;-64
2023/08/11 10:26:05;;;;;;;;;;;31.80;86.40;;;;;;5070015;28;20324;-65
2023/08/11 10:28:32;;;;;;;;;;;32.20;87.30;;;;;;5107747;28;19927;-66
2023/08/11 10:31:01;;;;;;;;;;;32.30;85.20;;;;;;5093854;28;19973;-65
2023/08/11 10:33:30;;;;;;;;;;;32.80;85.00;;;;;;5111092;28;20363;-65
2023/08/11 10:35:58;;;;;;;;;;;33.20;84.20;;;;;;5110359;28;20326;-64
2023/08/11 10:38:26;;;;;;;;;;;33.20;83.50;;;;;;5110348;28;20017;-65
2023/08/11 10:40:57;;;;;;;;;;;33.10;83.40;;;;;;5093869;28;20345;-66
2023/08/11 10:43:30;;;;;;;;;;;33.10;84.10;;;;;;5093984;28;19932;-65
2023/08/11 10:45:56;;;;;;;;;;;33.40;84.20;;;;;;5111345;28;20322;-64
2023/08/11 10:48:23;;;;;;;;;;;33.40;83.60;;;;;;5110084;28;20299;-64
2023/08/11 10:50:51;;;;;;;;;;;33.50;83.20;;;;;;5093498;28;19927;-66
2023/08/11 10:53:19;;;;;;;;;;;33.50;83.20;;;;;;5110830;28;19924;-65
2023/08/11 10:55:53;;;;;;;;;;;34.00;83.10;;;;;;5094023;28;20265;-65
2023/08/11 10:58:21;;;;;;;;;;;33.90;82.10;;;;;;5110075;28;19928;-66
2023/08/11 11:00:48;;;;;;;;;;;33.70;82.20;;;;;;5093349;28;19931;-65
2023/08/11 11:03:15;;;;;;;;;;;33.50;81.00;;;;;;5108339;28;19931;-65
2023/08/11 11:05:43;;;;;;;;;;;33.40;81.00;;;;;;5110424;28;20123;-65
2023/08/11 11:08:11;;;;;;;;;;;33.60;80.20;;;;;;5109360;28;20314;-65
2023/08/11 11:10:37;;;;;;;;;;;33.80;80.40;;;;;;5112786;28;19930;-66
2023/08/11 11:13:04;;;;;;;;;;;33.70;81.30;;;;;;5112390;28;19931;-65
2023/08/11 11:15:32;;;;;;;;;;;34.30;81.50;;;;;;5094497;28;19924;-65
2023/08/11 11:17:59;;;;;;;;;;;34.20;81.00;;;;;;5111772;28;19927;-64
2023/08/11 11:20:26;;;;;;;;;;;34.20;81.20;;;;;;5111873;28;20387;-66
2023/08/11 11:22:53;;;;;;;;;;;33.50;80.30;;;;;;5112523;28;19931;-64
2023/08/11 11:25:22;;;;;;;;;;;32.70;80.60;;;;;;5093695;28;19966;-64
2023/08/11 11:27:48;;;;;;;;;;;32.30;82.50;;;;;;5093599;28;19931;-64
2023/08/11 11:30:18;;;;;;;;;;;32.30;83.30;;;;;;5112585;28;19924;-65
2023/08/11 11:32:44;;;;;;;;;;;32.20;83.10;;;;;;5111154;28;20014;-65
2023/08/11 11:35:11;;;;;;;;;;;32.40;82.30;;;;;;5116825;28;19924;-64
2023/08/11 11:37:38;;;;;;;;;;;32.90;83.10;;;;;;5116864;28;20025;-64
2023/08/11 11:40:06;;;;;;;;;;;33.10;81.40;;;;;;5097868;28;19928;-64
2023/08/11 11:42:37;;;;;;;;;;;33.20;81.80;;;;;;5116956;28;19975;-64
2023/08/11 11:45:04;;;;;;;;;;;33.50;82.50;;;;;;5116410;28;19923;-64
2023/08/11 11:47:31;;;;;;;;;;;33.90;82.00;;;;;;5097626;28;20397;-63
2023/08/11 11:49:58;;;;;;;;;;;33.90;80.90;;;;;;5097748;28;19984;-65
2023/08/11 11:52:26;;;;;;;;;;;34.00;81.10;;;;;;5116300;28;19977;-64
2023/08/11 11:54:53;;;;;;;;;;;34.20;79.60;;;;;;5115562;28;20622;-64
2023/08/11 11:57:20;;;;;;;;;;;34.10;79.60;;;;;;5116303;28;19924;-65
2023/08/11 11:59:48;;;;;;;;;;;34.10;80.00;;;;;;5116039;28;19939;-65
2023/08/11 12:02:15;;;;;;;;;;;34.20;80.70;;;;;;5097365;28;19969;-65
2023/08/11 12:04:43;;;;;;;;;;;34.20;79.00;;;;;;5115943;28;19957;-65
2023/08/11 12:07:09;;;;;;;;;;;34.10;78.80;;;;;;5098175;28;19924;-65
2023/08/11 12:09:49;;;;;;;;;;;33.70;79.50;;;;;;5097303;28;19924;-65
2023/08/11 12:12:16;;;;;;;;;;;33.60;81.00;;;;;;5114386;28;19991;-65
2023/08/11 12:14:43;;;;;;;;;;;33.50;81.10;;;;;;5115955;28;20314;-65
2023/08/11 12:17:11;;;;;;;;;;;33.20;81.10;;;;;;5097301;28;20337;-66
2023/08/11 12:19:38;;;;;;;;;;;32.70;81.60;;;;;;5097659;28;19924;-65
2023/08/11 12:22:05;;;;;;;;;;;32.30;82.40;;;;;;5096967;28;19981;-65
2023/08/11 12:24:32;;;;;;;;;;;32.60;83.10;;;;;;5097843;28;19935;-65
2023/08/11 12:26:59;;;;;;;;;;;32.70;83.20;;;;;;5114807;28;19928;-65
2023/08/11 12:29:25;;;;;;;;;;;33.50;83.50;;;;;;5115004;28;20395;-65
2023/08/11 12:31:52;;;;;;;;;;;33.90;82.80;;;;;;5097418;28;20374;-64
2023/08/11 12:34:20;;;;;;;;;;;33.40;81.50;;;;;;5097589;28;19924;-65
2023/08/11 12:36:47;;;;;;;;;;;32.70;82.70;;;;;;5096459;28;20006;-64
2023/08/11 12:39:15;;;;;;;;;;;32.20;82.60;;;;;;5115343;28;19924;-65
2023/08/11 12:41:42;;;;;;;;;;;32.10;83.70;;;;;;5113541;28;20018;-65
2023/08/11 12:44:09;;;;;;;;;;;32.40;84.60;;;;;;5096372;28;19924;-65
2023/08/11 12:46:37;;;;;;;;;;;33.20;84.10;;;;;;5115416;28;19942;-65
2023/08/11 12:49:03;;;;;;;;;;;33.70;83.30;;;;;;5097120;28;19928;-65
2023/08/11 12:51:31;;;;;;;;;;;33.80;83.00;;;;;;5112524;28;20008;-65
2023/08/11 12:53:58;;;;;;;;;;;33.50;83.10;;;;;;5115619;27;19928;-65
2023/08/11 12:56:25;;;;;;;;;;;33.40;83.60;;;;;;5115264;28;19931;-64
2023/08/11 12:58:52;;;;;;;;;;;32.80;83.40;;;;;;5096328;28;20014;-65
2023/08/11 13:01:18;;;;;;;;;;;32.50;84.40;;;;;;5114938;28;20407;-66
2023/08/11 13:03:45;;;;;;;;;;;32.00;85.30;;;;;;5096788;28;19924;-65
2023/08/11 13:06:12;;;;;;;;;;;31.90;85.50;;;;;;5114544;28;19927;-64
2023/08/11 13:08:40;;;;;;;;;;;32.30;86.20;;;;;;5114844;28;19931;-64
2023/08/11 13:11:07;;;;;;;;;;;32.30;86.20;;;;;;5114888;28;19923;-64
2023/08/11 13:13:33;;;;;;;;;;;32.30;86.70;;;;;;5114161;28;19931;-64
2023/08/11 13:16:00;;;;;;;;;;;32.80;85.90;;;;;;5094015;27;19973;-65
2023/08/11 13:18:27;;;;;;;;;;;33.20;85.40;;;;;;5097669;28;20363;-64
2023/08/11 13:20:54;;;;;;;;;;;34.10;84.60;;;;;;5096129;28;19923;-65
2023/08/11 13:23:20;;;;;;;;;;;34.10;83.80;;;;;;5114386;28;19950;-65
2023/08/11 13:25:48;;;;;;;;;;;33.60;84.30;;;;;;5113567;28;19934;-64
2023/08/11 13:28:15;;;;;;;;;;;33.80;84.60;;;;;;5095172;28;19924;-65
2023/08/11 13:30:42;;;;;;;;;;;34.20;83.90;;;;;;5114517;28;19951;-65
2023/08/11 13:33:08;;;;;;;;;;;34.50;84.00;;;;;;5094991;28;19941;-64
2023/08/11 13:35:35;;;;;;;;;;;35.10;83.50;;;;;;5114429;28;20446;-65
2023/08/11 13:38:02;;;;;;;;;;;35.30;83.50;;;;;;5095893;28;19931;-65
2023/08/11 13:40:29;;;;;;;;;;;35.40;83.30;;;;;;5095742;28;19973;-65
2023/08/11 13:42:57;;;;;;;;;;;35.40;82.00;;;;;;5112774;28;19927;-65
2023/08/11 13:45:23;;;;;;;;;;;35.40;82.30;;;;;;5112098;28;19989;-65
2023/08/11 13:47:50;;;;;;;;;;;35.20;82.30;;;;;;5111696;28;19947;-65
2023/08/11 13:50:17;;;;;;;;;;;34.70;81.80;;;;;;5128014;27;19924;-65
2023/08/11 13:52:44;;;;;;;;;;;33.80;83.60;;;;;;5114368;28;19924;-64
2023/08/11 13:55:11;;;;;;;;;;;33.20;85.00;;;;;;5113285;28;20391;-64
2023/08/11 13:57:38;;;;;;;;;;;33.20;85.70;;;;;;5113622;28;19938;-64
2023/08/11 14:00:08;;;;;;;;;;;33.50;85.40;;;;;;5114637;28;19931;-65
2023/08/11 14:02:35;;;;;;;;;;;33.40;85.00;;;;;;5095386;28;19969;-65
2023/08/11 14:05:01;;;;;;;;;;;33.30;84.90;;;;;;5095938;28;19924;-65
2023/08/11 14:07:28;;;;;;;;;;;33.10;85.30;;;;;;5115054;28;20390;-65
2023/08/11 14:09:55;;;;;;;;;;;33.00;85.80;;;;;;5097822;28;19928;-65
2023/08/11 14:12:21;;;;;;;;;;;32.80;86.60;;;;;;5111509;28;19924;-65
2023/08/11 14:14:48;;;;;;;;;;;33.50;86.80;;;;;;5094945;28;19980;-65
2023/08/11 14:17:16;;;;;;;;;;;33.50;86.00;;;;;;5117003;27;19938;-65